Time;durP1;ratioP1;P1;durP2;ratioP2;P2;SDS_P1;SDS_P2;PMS_P1;PMS_P2;Temp;Humidity;BMP_temperature;BMP_pressure;BME280_temperature;BME280_humidity;BME280_pressure;Samples;Min_cycle;Max_cycle;Signal;HPM_P1;HPM_P2
2022/05/10 00:00:17;;;;;;;10.68;8.38;;;;;;;14.62;70.10;100077.28;5050174;28;20032;-64
2022/05/10 00:02:47;;;;;;;9.40;7.97;;;;;;;14.68;69.71;100073.41;5053563;28;20033;-64
2022/05/10 00:05:12;;;;;;;11.27;8.20;;;;;;;14.72;69.61;100078.44;5055946;28;20036;-65
2022/05/10 00:07:38;;;;;;;13.75;9.43;;;;;;;14.72;69.82;100066.97;5054490;28;20033;-66
2022/05/10 00:10:08;;;;;;;9.90;8.23;;;;;;;14.71;70.06;100068.75;5054658;28;20041;-65
2022/05/10 00:12:34;;;;;;;13.55;10.00;;;;;;;14.67;70.30;100072.56;5054336;28;20028;-66
2022/05/10 00:14:59;;;;;;;12.18;8.75;;;;;;;14.67;70.16;100063.72;5054452;28;20120;-65
2022/05/10 00:17:34;;;;;;;12.38;9.13;;;;;;;14.69;70.16;100065.31;5054227;28;20432;-65
2022/05/10 00:19:59;;;;;;;10.98;9.73;;;;;;;14.69;70.07;100054.69;5055208;28;20084;-65
2022/05/10 00:22:24;;;;;;;12.23;9.05;;;;;;;14.63;70.26;100049.78;5055122;28;20505;-65
2022/05/10 00:24:50;;;;;;;12.70;9.68;;;;;;;14.57;70.40;100052.81;5054393;28;20037;-65
2022/05/10 00:27:16;;;;;;;14.50;8.68;;;;;;;14.56;70.72;100046.66;5052429;28;20064;-64
2022/05/10 00:29:42;;;;;;;8.82;7.90;;;;;;;14.56;70.46;100043.16;5054972;28;20414;-65
2022/05/10 00:32:07;;;;;;;12.63;8.38;;;;;;;14.53;70.38;100040.66;5053746;28;20090;-64
2022/05/10 00:34:34;;;;;;;10.38;8.13;;;;;;;14.52;70.59;100049.56;5053503;28;20120;-65
2022/05/10 00:37:01;;;;;;;10.25;8.68;;;;;;;14.50;70.94;100038.22;5053418;28;20037;-64
2022/05/10 00:39:26;;;;;;;9.88;7.78;;;;;;;14.45;71.09;100042.91;5052680;28;20444;-65
2022/05/10 00:42:07;;;;;;;11.75;8.77;;;;;;;14.43;70.82;100039.53;5051050;28;20037;-64
2022/05/10 00:44:45;;;;;;;10.25;9.13;;;;;;;14.42;71.14;100040.47;5051102;28;20449;-66
2022/05/10 00:47:37;;;;;;;10.57;7.97;;;;;;;14.42;70.57;100037.81;5050513;28;20112;-66
2022/05/10 00:50:17;;;;;;;11.23;8.30;;;;;;;14.41;70.10;100034.31;5050809;28;20032;-66
2022/05/10 00:52:59;;;;;;;12.48;8.30;;;;;;;14.41;70.35;100028.16;5051116;28;20547;-65
2022/05/10 00:55:34;;;;;;;13.43;9.10;;;;;;;14.35;70.39;100034.69;5051108;28;20083;-65
2022/05/10 00:58:45;;;;;;;11.35;8.05;;;;;;;14.28;70.87;100028.06;5049730;28;20037;-64
2022/05/10 01:01:16;;;;;;;8.95;7.80;;;;;;;14.22;70.86;100028.41;4976335;28;20103;-66
2022/05/10 01:03:59;;;;;;;10.15;8.25;;;;;;;14.22;71.59;100028.41;5018595;28;20053;-67
2022/05/10 01:06:33;;;;;;;11.00;8.73;;;;;;;14.18;71.46;100023.31;5010743;28;20047;-66
2022/05/10 01:09:08;;;;;;;11.10;8.05;;;;;;;14.16;71.21;100016.38;5011072;28;20080;-65
2022/05/10 01:12:00;;;;;;;12.80;9.23;;;;;;;14.13;71.51;100019.22;5011410;28;20034;-65
2022/05/10 01:14:25;;;;;;;12.02;9.73;;;;;;;14.10;71.48;100024.69;5030828;28;20037;-66
2022/05/10 01:16:51;;;;;;;10.45;8.75;;;;;;;14.09;71.90;100026.50;5029700;28;20092;-65
2022/05/10 01:19:16;;;;;;;11.52;9.45;;;;;;;14.06;71.89;100021.38;5030579;28;20046;-66
2022/05/10 01:21:49;;;;;;;11.63;8.57;;;;;;;14.05;72.08;100014.34;5030261;28;20036;-66
2022/05/10 01:24:45;;;;;;;11.07;9.30;;;;;;;14.04;72.31;100020.63;5030524;28;20041;-64
2022/05/10 01:27:35;;;;;;;10.00;9.00;;;;;;;14.02;71.77;100011.91;5011930;28;20041;-66
2022/05/10 01:30:14;;;;;;;9.23;8.25;;;;;;;13.99;72.27;100009.44;5030475;28;20065;-65
2022/05/10 01:33:30;;;;;;;14.38;8.65;;;;;;;13.96;72.35;100004.34;5039297;28;20033;-64
2022/05/10 01:36:06;;;;;;;12.95;9.35;;;;;;;13.94;72.38;100001.75;5049666;28;20390;-67
2022/05/10 01:38:41;;;;;;;12.52;9.13;;;;;;;13.93;72.14;100002.72;5050272;28;20057;-66
2022/05/10 01:41:18;;;;;;;11.90;8.63;;;;;;;13.95;71.61;99997.31;5050428;28;20033;-66
2022/05/10 01:44:22;;;;;;;12.25;8.25;;;;;;;13.93;72.05;99999.19;5050094;28;20118;-65
2022/05/10 01:46:51;;;;;;;11.40;8.35;;;;;;;13.87;72.05;99994.28;5048910;28;20490;-66
2022/05/10 01:49:26;;;;;;;11.13;8.65;;;;;;;13.86;72.64;99996.06;5050053;28;20052;-65
2022/05/10 01:52:05;;;;;;;10.73;9.40;;;;;;;13.87;72.40;99997.78;5050132;28;20055;-66
2022/05/10 01:54:39;;;;;;;10.55;7.80;;;;;;;13.91;72.26;99999.31;5049871;28;20033;-64
2022/05/10 01:57:09;;;;;;;11.70;8.40;;;;;;;13.92;71.86;99998.34;5049303;28;20041;-65
2022/05/10 01:59:34;;;;;;;9.50;7.68;;;;;;;13.92;72.41;99998.34;5049604;28;20047;-67
2022/05/10 02:02:01;;;;;;;11.60;8.00;;;;;;;13.93;72.06;99997.41;5049759;28;20132;-67
2022/05/10 02:04:33;;;;;;;10.77;8.35;;;;;;;13.92;72.30;99997.50;5049950;28;20029;-66
2022/05/10 02:07:17;;;;;;;12.30;8.63;;;;;;;13.86;72.70;99990.78;5049223;28;20037;-66
2022/05/10 02:09:48;;;;;;;11.80;7.68;;;;;;;13.82;72.31;99997.19;5048770;28;20478;-66
2022/05/10 02:12:18;;;;;;;9.63;7.30;;;;;;;13.83;72.29;99998.91;5049662;28;20048;-66
2022/05/10 02:14:58;;;;;;;12.10;8.25;;;;;;;13.83;72.62;99996.25;5049778;28;20563;-65
2022/05/10 02:17:37;;;;;;;11.23;8.80;;;;;;;13.80;72.20;99996.41;5048945;28;20048;-67
2022/05/10 02:20:09;;;;;;;9.32;8.18;;;;;;;13.78;73.08;99990.34;5049601;28;20033;-66
2022/05/10 02:22:43;;;;;;;8.98;8.05;;;;;;;13.75;72.64;99998.50;5049474;28;20071;-66
2022/05/10 02:25:15;;;;;;;10.77;8.93;;;;;;;13.76;72.37;99994.91;5048897;28;20067;-65
2022/05/10 02:27:46;;;;;;;10.68;6.95;;;;;;;13.76;72.69;99986.97;5028815;28;20033;-65
2022/05/10 02:30:15;;;;;;;7.47;6.70;;;;;;;13.75;72.21;99987.91;5029594;28;20033;-64
2022/05/10 02:33:09;;;;;;;9.02;8.10;;;;;;;13.74;72.85;99983.56;5029467;28;20064;-64
2022/05/10 02:35:38;;;;;;;12.05;7.55;;;;;;;13.69;72.56;99980.31;5028943;28;20034;-64
2022/05/10 02:38:05;;;;;;;8.70;7.78;;;;;;;13.67;72.76;99972.47;5028704;28;20036;-66
2022/05/10 02:40:31;;;;;;;11.35;9.27;;;;;;;13.66;72.67;99969.88;5029075;28;20033;-67
2022/05/10 02:42:56;;;;;;;9.90;7.15;;;;;;;13.66;72.66;99977.84;5028867;28;20037;-66
2022/05/10 02:45:22;;;;;;;9.60;7.93;;;;;;;13.67;72.86;99966.31;5029908;28;20124;-65
2022/05/10 02:47:49;;;;;;;9.05;7.78;;;;;;;13.67;72.33;99972.47;5010472;28;20033;-65
2022/05/10 02:50:23;;;;;;;8.95;8.05;;;;;;;13.63;72.88;99960.31;5029003;28;20108;-65
2022/05/10 02:52:48;;;;;;;9.25;7.65;;;;;;;13.61;73.11;99966.66;5028212;28;20116;-64
2022/05/10 02:55:34;;;;;;;13.07;8.38;;;;;;;13.61;72.95;99964.00;5029610;28;20109;-64
2022/05/10 02:58:07;;;;;;;11.98;8.40;;;;;;;13.60;72.68;99962.31;5027706;28;20101;-66
2022/05/10 03:00:33;;;;;;;11.27;8.00;;;;;;;13.57;72.96;99959.84;5029683;28;20037;-66
2022/05/10 03:03:07;;;;;;;11.25;8.73;;;;;;;13.53;72.75;99949.41;5029004;28;20115;-66
2022/05/10 03:05:33;;;;;;;9.93;7.53;;;;;;;13.55;72.74;99946.69;5029376;28;20037;-66
2022/05/10 03:07:59;;;;;;;12.07;8.15;;;;;;;13.57;73.04;99951.91;5028400;28;20048;-66
2022/05/10 03:10:24;;;;;;;9.00;7.57;;;;;;;13.56;72.95;99950.19;5029209;28;20033;-67
2022/05/10 03:12:50;;;;;;;10.65;7.65;;;;;;;13.57;72.45;99949.25;5029207;28;20040;-66
2022/05/10 03:15:15;;;;;;;9.85;7.05;;;;;;;13.55;71.79;99940.53;5028007;28;20487;-66
2022/05/10 03:17:41;;;;;;;8.98;8.07;;;;;;;13.50;72.14;99933.72;5028648;28;20507;-65
2022/05/10 03:20:07;;;;;;;13.38;8.60;;;;;;;13.48;72.64;99924.16;5029761;28;20041;-65
2022/05/10 03:22:32;;;;;;;9.35;8.40;;;;;;;13.49;72.28;99937.31;5029220;28;20037;-65
2022/05/10 03:24:58;;;;;;;8.20;6.68;;;;;;;13.52;72.49;99931.81;5028728;28;20487;-65
2022/05/10 03:27:23;;;;;;;14.27;7.63;;;;;;;13.58;72.02;99927.97;5028711;28;20113;-65
2022/05/10 03:29:48;;;;;;;10.68;7.43;;;;;;;13.56;72.47;99929.88;5028818;28;20049;-65
2022/05/10 03:32:14;;;;;;;7.45;6.72;;;;;;;13.57;72.54;99926.25;5029590;28;20034;-64
2022/05/10 03:37:33;;;;;;;13.63;8.98;;;;;;;13.62;72.54;99923.34;5022536;28;20064;-66
2022/05/10 03:39:59;;;;;;;11.68;7.60;;;;;;;13.66;71.74;99922.19;5032420;28;20041;-66
2022/05/10 03:42:26;;;;;;;9.40;8.00;;;;;;;13.66;71.99;99923.06;5032716;28;20048;-66
2022/05/10 03:44:55;;;;;;;10.23;8.43;;;;;;;13.67;71.80;99921.28;5032766;28;20453;-66
2022/05/10 03:47:26;;;;;;;7.53;6.70;;;;;;;13.69;71.60;99924.69;5028329;28;20033;-66
2022/05/10 03:49:51;;;;;;;12.65;8.15;;;;;;;13.71;71.46;99925.44;5031200;28;20037;-66
2022/05/10 03:52:17;;;;;;;11.00;7.68;;;;;;;13.72;71.22;99916.53;5032553;28;20379;-65
2022/05/10 03:54:44;;;;;;;12.13;8.63;;;;;;;13.77;70.88;99922.41;5033062;28;20056;-66
2022/05/10 03:57:09;;;;;;;10.05;7.07;;;;;;;13.81;71.25;99926.59;5031976;28;20120;-65
2022/05/10 03:59:41;;;;;;;9.27;7.13;;;;;;;13.84;70.90;99921.09;5032683;28;20433;-65
2022/05/10 04:02:06;;;;;;;13.43;8.35;;;;;;;13.84;70.70;99913.16;5032915;28;20152;-66
2022/05/10 04:04:32;;;;;;;9.68;8.07;;;;;;;13.81;71.05;99918.66;5033399;28;20030;-67
2022/05/10 04:06:57;;;;;;;10.25;7.82;;;;;;;13.83;70.87;99919.41;5033695;28;20045;-65
2022/05/10 04:09:22;;;;;;;8.13;5.88;;;;;;;13.85;71.15;99914.84;5032792;28;20030;-65
2022/05/10 04:11:48;;;;;;;14.75;8.80;;;;;;;13.87;70.84;99920.91;5033791;28;20052;-65
2022/05/10 04:14:13;;;;;;;10.82;8.15;;;;;;;13.85;70.82;99916.66;5034186;28;20029;-65
2022/05/10 04:16:39;;;;;;;9.15;7.55;;;;;;;13.83;70.73;99918.53;5032225;28;20040;-67
2022/05/10 04:19:04;;;;;;;12.98;8.93;;;;;;;13.83;70.89;99916.75;5031944;28;20029;-64
2022/05/10 04:21:29;;;;;;;8.60;7.68;;;;;;;13.83;70.87;99914.13;5031987;28;20037;-64
2022/05/10 04:23:55;;;;;;;10.25;8.30;;;;;;;13.83;70.58;99918.53;5031752;28;20034;-65
2022/05/10 04:26:20;;;;;;;9.18;7.40;;;;;;;13.88;70.86;99906.72;5031382;28;20034;-65
2022/05/10 04:28:46;;;;;;;10.25;7.47;;;;;;;13.91;70.36;99909.19;5032069;28;20086;-65
2022/05/10 04:31:12;;;;;;;10.95;8.40;;;;;;;13.95;70.50;99910.72;5031803;28;20053;-65
2022/05/10 04:33:39;;;;;;;15.73;9.75;;;;;;;13.98;70.34;99916.75;5031616;28;20493;-64
2022/05/10 04:36:05;;;;;;;9.43;7.47;;;;;;;13.96;70.13;99909.75;5031125;28;20553;-66
2022/05/10 04:38:30;;;;;;;9.85;8.20;;;;;;;13.97;70.37;99913.25;5031468;28;20033;-65
2022/05/10 04:43:40;;;;;;;11.75;7.53;;;;;;;14.01;70.21;99911.28;5031569;28;20048;-66
2022/05/10 04:46:06;;;;;;;12.80;7.22;;;;;;;14.03;70.11;99904.94;5031222;28;20033;-65
2022/05/10 04:48:33;;;;;;;8.85;7.95;;;;;;;14.06;70.22;99909.19;5005430;28;20033;-65
2022/05/10 04:50:59;;;;;;;9.73;6.35;;;;;;;14.05;70.15;99912.78;5030683;28;20116;-65
2022/05/10 04:53:25;;;;;;;8.48;7.60;;;;;;;14.09;70.10;99909.00;5031442;28;20121;-64
2022/05/10 04:55:51;;;;;;;12.50;9.25;;;;;;;14.12;69.46;99909.66;5031213;28;20513;-66
2022/05/10 04:58:16;;;;;;;12.32;7.22;;;;;;;14.16;69.50;99910.31;5031467;28;20041;-67
2022/05/10 05:00:42;;;;;;;9.70;7.40;;;;;;;14.21;69.47;99910.03;5032131;28;20088;-66
2022/05/10 05:03:07;;;;;;;8.50;7.60;;;;;;;14.23;69.34;99911.66;5031915;28;20045;-66
2022/05/10 05:05:32;;;;;;;18.83;7.70;;;;;;;14.24;69.95;99908.03;5038333;28;20454;-66
2022/05/10 05:07:58;;;;;;;9.38;7.78;;;;;;;14.28;69.45;99916.69;5036807;28;20033;-66
2022/05/10 05:10:24;;;;;;;11.68;7.15;;;;;;;14.26;69.59;99915.91;5035604;28;20113;-64
2022/05/10 05:12:50;;;;;;;10.73;8.25;;;;;;;14.28;69.73;99920.19;5043277;28;20042;-65
2022/05/10 05:15:16;;;;;;;10.65;7.85;;;;;;;14.31;70.07;99919.13;5045320;28;20111;-65
2022/05/10 05:17:41;;;;;;;12.77;8.50;;;;;;;14.35;69.84;99920.66;5040125;28;20041;-66
2022/05/10 05:20:08;;;;;;;10.45;7.55;;;;;;;14.40;69.86;99918.56;5041773;28;20061;-67
2022/05/10 05:22:33;;;;;;;11.73;8.85;;;;;;;14.42;69.85;99913.13;5039824;28;20053;-66
2022/05/10 05:24:58;;;;;;;10.52;7.03;;;;;;;14.46;69.83;99909.34;5042689;28;20049;-66
2022/05/10 05:27:23;;;;;;;13.32;7.47;;;;;;;14.49;69.82;99915.31;5029405;28;20045;-68
2022/05/10 05:29:49;;;;;;;15.75;8.00;;;;;;;14.58;69.96;99916.56;5030969;28;20120;-67
2022/05/10 05:32:17;;;;;;;7.70;6.55;;;;;;;14.64;69.71;99921.47;5030245;28;20499;-54
2022/05/10 05:34:43;;;;;;;15.10;8.88;;;;;;;14.76;69.53;99919.84;5030617;28;20041;-54
2022/05/10 05:39:52;;;;;;;34.45;12.27;;;;;;;15.08;68.57;99919.53;5030461;28;20071;-54
2022/05/10 05:42:18;;;;;;;22.65;9.65;;;;;;;15.12;68.54;99921.06;5029451;28;20045;-53
2022/05/10 05:44:44;;;;;;;13.60;7.90;;;;;;;15.19;68.24;99919.69;5030836;28;20072;-56
2022/05/10 05:47:09;;;;;;;25.30;9.45;;;;;;;15.27;68.17;99921.84;5029957;28;20125;-54
2022/05/10 05:49:35;;;;;;;15.45;7.43;;;;;;;15.30;68.31;99916.31;5028730;28;20500;-55
2022/05/10 05:52:02;;;;;;;14.50;8.90;;;;;;;15.33;68.25;99919.59;5031807;28;20026;-57
2022/05/10 05:54:28;;;;;;;20.55;7.22;;;;;;;15.38;68.12;99919.31;5031760;28;20116;-57
2022/05/10 05:57:06;;;;;;;12.07;7.53;;;;;;;15.55;68.04;99915.50;5031093;28;20057;-58
2022/05/10 05:59:35;;;;;;;12.88;8.48;;;;;;;15.62;67.89;99920.31;5030494;28;20055;-57
2022/05/10 06:02:00;;;;;;;11.02;7.93;;;;;;;15.68;67.91;99909.28;5031052;28;20049;-57
2022/05/10 06:04:26;;;;;;;15.88;6.93;;;;;;;15.83;67.46;99907.41;5031185;28;20045;-57
2022/05/10 06:06:52;;;;;;;9.27;6.32;;;;;;;15.98;67.38;99917.94;5030083;28;20128;-57
2022/05/10 06:09:22;;;;;;;11.10;7.93;;;;;;;16.07;67.19;99911.94;5031363;28;20072;-56
2022/05/10 06:11:49;;;;;;;12.20;7.22;;;;;;;16.23;67.17;99909.91;5030987;28;20124;-58
2022/05/10 06:14:14;;;;;;;16.65;7.22;;;;;;;16.44;66.49;99906.69;5028818;28;20037;-59
2022/05/10 06:16:41;;;;;;;16.25;8.15;;;;;;;16.70;66.02;99902.16;5029596;28;20040;-56
2022/05/10 06:19:08;;;;;;;16.45;6.80;;;;;;;16.89;65.43;99907.00;5030157;28;20087;-64
2022/05/10 06:21:34;;;;;;;13.27;7.45;;;;;;;17.17;64.70;99896.00;5027633;28;20029;-54
2022/05/10 06:23:59;;;;;;;14.00;7.10;;;;;;;17.45;63.52;99895.72;5005709;28;20037;-54
2022/05/10 06:26:24;;;;;;;16.70;7.18;;;;;;;17.71;62.86;99897.25;5004679;28;20065;-53
2022/05/10 06:28:50;;;;;;;8.95;6.57;;;;;;;17.97;61.57;99889.09;5023170;28;20037;-51
2022/05/10 06:31:15;;;;;;;19.42;7.15;;;;;;;18.20;60.27;99885.44;5024561;28;20091;-53
2022/05/10 06:33:40;;;;;;;8.80;6.63;;;;;;;18.49;59.25;99887.59;5024132;28;20495;-66
2022/05/10 06:36:06;;;;;;;6.78;5.40;;;;;;;18.75;55.24;99881.97;5023970;28;20048;-68
2022/05/10 06:38:31;;;;;;;9.80;5.10;;;;;;;19.04;54.45;99879.59;5042565;28;20037;-68
2022/05/10 06:41:04;;;;;;;5.53;4.70;;;;;;;19.40;53.78;99886.34;5044837;28;20122;-68
2022/05/10 06:43:38;;;;;;;7.97;5.05;;;;;;;19.76;51.56;99876.19;5027466;28;20041;-68
2022/05/10 06:46:11;;;;;;;5.55;4.47;;;;;;;20.02;51.43;99881.13;5043762;28;20099;-67
2022/05/10 06:48:37;;;;;;;7.38;5.00;;;;;;;20.24;50.12;99880.09;5043964;28;20410;-68
2022/05/10 06:51:08;;;;;;;5.45;4.20;;;;;;;20.46;49.26;99881.72;5044518;28;20068;-67
2022/05/10 06:53:34;;;;;;;5.75;4.60;;;;;;;20.57;49.06;99876.25;5039752;28;20479;-68
2022/05/10 06:56:00;;;;;;;6.22;4.95;;;;;;;20.77;49.05;99872.66;5043811;28;20041;-69
2022/05/10 06:58:25;;;;;;;6.72;4.90;;;;;;;20.98;48.44;99872.53;5044047;28;20044;-69
2022/05/10 07:00:50;;;;;;;9.38;4.32;;;;;;;21.19;48.55;99864.34;5044611;28;20191;-68
2022/05/10 07:03:22;;;;;;;6.60;4.60;;;;;;;21.34;47.49;99867.44;5044020;28;20358;-70
2022/05/10 07:05:47;;;;;;;12.43;4.40;;;;;;;;;;5044260;28;20037;-68
2022/05/10 07:08:13;;;;;;;8.97;4.83;;;;;;;21.58;47.09;99868.84;5044131;28;20551;-70
2022/05/10 07:10:38;;;;;;;6.03;3.92;;;;;;;21.65;46.79;99870.78;5046727;28;20992;-68
2022/05/10 07:13:04;;;;;;;5.57;4.40;;;;;;;21.74;46.02;99870.94;5050278;28;20128;-70
2022/05/10 07:15:30;;;;;;;5.18;4.05;;;;;;;21.78;45.42;99864.25;5050033;28;20068;-69
2022/05/10 07:17:55;;;;;;;9.70;4.88;;;;;;;21.94;45.41;99856.47;5048388;28;20502;-69
2022/05/10 07:20:21;;;;;;;6.30;4.28;;;;;;;22.07;45.00;99856.13;5048706;28;20033;-67
2022/05/10 07:22:47;;;;;;;21.40;5.25;;;;;;;22.17;44.86;99858.75;5048104;28;20088;-67
2022/05/10 07:25:15;;;;;;;7.72;4.30;;;;;;;22.25;44.19;99859.75;5047818;28;20036;-67
2022/05/10 07:27:41;;;;;;;5.93;3.80;;;;;;;22.24;44.31;99857.22;5032449;28;20477;-70
2022/05/10 07:30:09;;;;;;;7.05;4.22;;;;;;;22.34;44.05;99849.94;5028328;28;20033;-68
2022/05/10 07:32:35;;;;;;;7.40;3.58;;;;;;;22.43;43.90;99857.09;5027823;28;20041;-69
2022/05/10 07:35:03;;;;;;;13.25;4.70;;;;;;;22.59;44.01;99855.59;5027917;28;20037;-70
2022/05/10 07:37:29;;;;;;;6.93;4.20;;;;;;;22.71;43.67;99857.91;5012120;28;20083;-69
2022/05/10 07:39:55;;;;;;;9.88;4.53;;;;;;;22.81;43.66;99855.16;5026432;28;20040;-68
2022/05/10 07:42:20;;;;;;;14.18;5.13;;;;;;;23.11;42.11;99850.41;5029656;28;20041;-66
2022/05/10 07:44:46;;;;;;;9.10;4.28;;;;;;;23.55;41.47;99854.00;5028998;28;20069;-68
2022/05/10 07:47:11;;;;;;;7.28;4.15;;;;;;;24.03;39.91;99845.56;5027796;28;20069;-68
2022/05/10 07:49:37;;;;;;;5.40;4.07;;;;;;;24.11;39.24;99846.41;5027982;28;20490;-67
2022/05/10 07:52:04;;;;;;;5.97;4.32;;;;;;;24.11;39.18;99849.09;5028536;28;20033;-68
2022/05/10 07:54:30;;;;;;;7.28;4.35;;;;;;;24.30;39.12;99848.03;5027294;28;20039;-67
2022/05/10 07:56:55;;;;;;;5.85;4.38;;;;;;;24.79;38.60;99837.41;5026975;28;20034;-67
2022/05/10 07:59:20;;;;;;;7.47;3.75;;;;;;;25.11;38.41;99838.44;5026971;28;20061;-71
2022/05/10 08:01:45;;;;;;;8.00;4.75;;;;;;;25.36;37.15;99838.47;5027317;28;20045;-70
2022/05/10 08:04:11;;;;;;;9.80;4.38;;;;;;;25.46;36.83;99834.56;5027192;28;20495;-68
2022/05/10 08:06:36;;;;;;;9.88;4.38;;;;;;;25.12;36.72;99836.59;5026531;28;20128;-71
2022/05/10 08:09:02;;;;;;;5.53;4.35;;;;;;;25.05;36.39;99831.84;5028353;28;20038;-70
2022/05/10 08:11:27;;;;;;;5.70;4.03;;;;;;;25.03;36.54;99836.59;5027243;28;20080;-68
2022/05/10 08:13:53;;;;;;;5.75;3.85;;;;;;;25.13;36.78;99838.25;5027499;28;20040;-68
2022/05/10 08:16:18;;;;;;;4.40;3.28;;;;;;;25.12;36.75;99836.59;5024963;28;20037;-68
2022/05/10 08:18:45;;;;;;;6.90;3.97;;;;;;;25.36;35.88;99833.91;5044964;28;20052;-67
2022/05/10 08:21:11;;;;;;;5.15;3.22;;;;;;;25.39;35.96;99830.88;5046904;28;20040;-68
2022/05/10 08:23:37;;;;;;;3.70;3.30;;;;;;;25.51;36.28;99833.22;5029563;28;20088;-68
2022/05/10 08:26:05;;;;;;;10.45;3.90;;;;;;;25.55;35.52;99831.84;5027786;28;20042;-69
2022/05/10 08:28:33;;;;;;;5.78;3.92;;;;;;;25.55;35.61;99832.72;5027548;28;20045;-68
2022/05/10 08:30:59;;;;;;;12.43;5.03;;;;;;;25.62;35.21;99836.41;5009685;28;20037;-69
2022/05/10 08:33:28;;;;;;;6.07;3.70;;;;;;;25.65;34.77;99838.78;5026787;28;20086;-68
2022/05/10 08:35:55;;;;;;;7.47;3.55;;;;;;;25.96;34.44;99815.59;5008375;28;20056;-68
2022/05/10 08:38:20;;;;;;;4.38;3.80;;;;;;;26.09;34.72;99819.44;5008621;28;20208;-68
2022/05/10 08:40:52;;;;;;;12.45;4.70;;;;;;;26.04;33.79;99823.66;5027207;28;20150;-68
2022/05/10 08:43:24;;;;;;;6.53;3.17;;;;;;;25.77;33.10;99828.47;5026266;28;20041;-68
2022/05/10 08:45:50;;;;;;;4.18;3.28;;;;;;;25.49;33.70;99822.59;5025406;28;20033;-69
2022/05/10 08:48:15;;;;;;;18.13;4.70;;;;;;;25.47;34.65;99819.22;5025253;28;20041;-68
2022/05/10 08:50:44;;;;;;;11.23;3.95;;;;;;;25.26;34.68;99825.16;5025977;28;20052;-68
2022/05/10 08:53:11;;;;;;;4.70;3.35;;;;;;;25.06;34.62;99825.47;5025381;28;20083;-68
2022/05/10 08:55:41;;;;;;;10.20;3.40;;;;;;;24.89;34.38;99815.69;5026828;28;20112;-69
2022/05/10 08:58:22;;;;;;;6.65;3.85;;;;;;;24.79;34.47;99826.63;5027080;28;20061;-68
2022/05/10 09:01:00;;;;;;;11.05;4.47;;;;;;;24.73;34.37;99821.03;5026613;28;20041;-69
2022/05/10 09:03:53;;;;;;;4.70;3.35;;;;;;;24.66;34.70;99817.31;5026092;28;20053;-69
2022/05/10 09:06:47;;;;;;;6.57;3.65;;;;;;;24.55;34.54;99816.63;5024946;28;20037;-69
2022/05/10 09:09:28;;;;;;;14.73;4.07;;;;;;;24.66;34.83;99820.00;5025930;28;20120;-70
2022/05/10 09:12:16;;;;;;;9.35;3.70;;;;;;;24.81;34.24;99818.38;5026799;28;20033;-69
2022/05/10 09:15:03;;;;;;;8.70;3.08;;;;;;;24.87;34.27;99811.47;5045937;28;20029;-67
2022/05/10 09:17:31;;;;;;;8.80;3.78;;;;;;;25.05;34.30;99810.25;5049414;28;20129;-68
2022/05/10 09:19:58;;;;;;;8.35;3.20;;;;;;;25.70;33.18;99806.69;5046144;28;20036;-68
2022/05/10 09:22:52;;;;;;;7.78;3.78;;;;;;;25.82;33.07;99804.47;5033857;28;20049;-68
2022/05/10 09:25:28;;;;;;;11.10;3.45;;;;;;;25.78;32.10;99800.41;5045548;28;20751;-68
2022/05/10 09:27:54;;;;;;;8.82;3.97;;;;;;;25.67;32.40;99807.03;5045196;28;20037;-67
2022/05/10 09:30:32;;;;;;;7.15;3.75;;;;;;;26.22;31.36;99799.09;5045819;28;20033;-68
2022/05/10 09:36:03;;;;;;;6.65;3.75;;;;;;;26.16;31.71;99797.09;5024975;28;20465;-69
2022/05/10 09:38:28;;;;;;;9.48;4.30;;;;;;;26.04;31.86;99791.22;5025607;28;20518;-68
2022/05/10 09:40:54;;;;;;;5.15;3.15;;;;;;;25.92;32.14;99791.63;5025753;28;20071;-68
2022/05/10 09:43:32;;;;;;;5.03;3.53;;;;;;;26.15;32.27;99790.03;4991619;28;20037;-68
2022/05/10 09:46:10;;;;;;;6.43;3.17;;;;;;;26.33;31.64;99785.19;5025362;28;20119;-69
2022/05/10 09:48:36;;;;;;;4.78;3.05;;;;;;;26.27;31.69;99786.75;5025401;28;20905;-69
2022/05/10 09:51:18;;;;;;;9.23;3.55;;;;;;;26.11;31.71;99784.97;5025661;28;20116;-68
2022/05/10 09:53:44;;;;;;;5.93;3.50;;;;;;;25.82;32.22;99790.09;5025172;28;20566;-67
2022/05/10 09:56:24;;;;;;;6.03;3.47;;;;;;;25.54;32.24;99793.22;5023994;28;20124;-68
2022/05/10 09:59:03;;;;;;;10.90;4.07;;;;;;;25.37;33.08;99800.50;5035073;28;20055;-67
2022/05/10 10:01:42;;;;;;;7.90;3.13;;;;;;;25.42;33.25;99790.03;5053259;28;20044;-68
2022/05/10 10:04:21;;;;;;;6.10;3.95;;;;;;;25.40;33.33;99788.50;5028702;28;20147;-67
2022/05/10 10:07:05;;;;;;;6.05;3.25;;;;;;;25.35;33.73;99788.19;5035768;28;20140;-67
2022/05/10 10:09:33;;;;;;;4.97;3.85;;;;;;;25.34;32.96;99794.63;5046330;28;20693;-67
2022/05/10 10:12:00;;;;;;;11.77;4.40;;;;;;;25.45;33.11;99784.31;5046887;28;20401;-65
2022/05/10 10:14:41;;;;;;;6.35;3.92;;;;;;;25.53;33.03;99786.16;5044142;28;20094;-67
2022/05/10 10:17:17;;;;;;;5.82;3.60;;;;;;;25.55;33.10;99783.25;5044863;28;20031;-66
2022/05/10 10:19:48;;;;;;;5.78;3.78;;;;;;;26.00;32.37;99787.22;5034799;28;20033;-67
2022/05/10 10:22:21;;;;;;;12.75;3.25;;;;;;;25.97;32.11;99788.41;5024554;28;20041;-65
2022/05/10 10:25:14;;;;;;;12.20;4.50;;;;;;;26.02;31.87;99787.88;5024444;28;20045;-65
2022/05/10 10:27:47;;;;;;;4.72;4.03;;;;;;;26.91;30.86;99782.97;5041653;28;20037;-66
2022/05/10 10:30:27;;;;;;;3.80;3.40;;;;;;;26.89;31.13;99776.91;5044136;28;20068;-68
2022/05/10 10:33:12;;;;;;;5.25;4.15;;;;;;;26.76;30.68;99785.63;5038051;28;20037;-68
2022/05/10 10:35:46;;;;;;;8.63;4.18;;;;;;;26.86;30.29;99778.09;5045915;28;20041;-67
2022/05/10 10:38:19;;;;;;;8.63;4.30;;;;;;;26.60;30.82;99769.50;5045374;28;20039;-70
2022/05/10 10:40:56;;;;;;;9.77;3.95;;;;;;;26.12;31.52;99767.72;5046065;28;20465;-69
2022/05/10 10:43:29;;;;;;;6.88;3.88;;;;;;;26.03;31.89;99763.38;5056853;28;20056;-68
2022/05/10 10:46:01;;;;;;;8.07;4.47;;;;;;;25.90;31.47;99761.25;5065549;28;20075;-68
2022/05/10 10:48:45;;;;;;;8.10;4.75;;;;;;;26.07;31.83;99763.88;5031450;28;20041;-67
2022/05/10 10:51:11;;;;;;;9.70;4.18;;;;;;;26.54;31.39;99747.56;5045852;28;20103;-68
2022/05/10 10:53:39;;;;;;;7.15;4.28;;;;;;;26.68;31.15;99754.06;5045652;28;20478;-68
2022/05/10 10:56:20;;;;;;;7.60;3.92;;;;;;;26.60;30.62;99747.88;5045162;28;20517;-68
2022/05/10 10:58:57;;;;;;;5.00;3.38;;;;;;;26.48;31.18;99750.13;5045708;28;20051;-69
2022/05/10 11:01:29;;;;;;;9.50;4.10;;;;;;;26.34;31.45;99744.47;5045819;28;20044;-67
2022/05/10 11:04:19;;;;;;;10.43;3.90;;;;;;;26.26;31.44;99739.13;5045527;28;20033;-69
2022/05/10 11:06:50;;;;;;;11.07;4.25;;;;;;;26.20;31.93;99749.78;5026458;28;20041;-69
2022/05/10 11:09:46;;;;;;;14.63;3.90;;;;;;;26.02;31.91;99731.97;5044289;28;20112;-67
2022/05/10 11:12:35;;;;;;;6.00;4.18;;;;;;;25.90;32.19;99734.22;5044254;28;20029;-68
2022/05/10 11:15:37;;;;;;;8.18;4.53;;;;;;;25.86;32.71;99735.59;5044172;28;20228;-69
2022/05/10 11:18:30;;;;;;;7.18;4.25;;;;;;;26.00;32.45;99739.41;5042357;28;20037;-68
2022/05/10 11:21:20;;;;;;;4.65;4.05;;;;;;;26.07;32.63;99737.69;5026416;28;20041;-69
2022/05/10 11:24:07;;;;;;;10.00;4.88;;;;;;;25.95;32.75;99733.72;5029282;28;20045;-67
2022/05/10 11:26:54;;;;;;;16.35;5.30;;;;;;;25.76;33.04;99736.78;5043279;28;20041;-70
2022/05/10 11:29:54;;;;;;;6.57;4.82;;;;;;;25.51;33.95;99739.59;5043716;28;20411;-68
2022/05/10 11:32:25;;;;;;;11.60;5.75;;;;;;;25.39;34.01;99741.78;5043917;28;20079;-67
2022/05/10 11:34:54;;;;;;;10.38;4.38;;;;;;;25.35;33.76;99737.78;5042849;28;20045;-68
2022/05/10 11:37:47;;;;;;;10.32;5.07;;;;;;;25.40;33.59;99735.41;5041734;28;20091;-68
2022/05/10 11:40:21;;;;;;;8.57;3.88;;;;;;;25.52;33.84;99735.84;5013325;28;20069;-69
2022/05/10 11:42:52;;;;;;;;;;;;;;;25.70;33.68;99724.84;5024130;28;20094;-69
2022/05/10 11:45:21;;;;;;;8.35;4.40;;;;;;;25.88;34.02;99720.06;5023990;28;19921;-68
2022/05/10 11:48:18;;;;;;;5.10;4.03;;;;;;;26.16;33.74;99713.31;5022969;28;20037;-69
2022/05/10 11:54:38;;;;;;;5.25;4.35;;;;;;;26.21;33.38;99706.38;5043526;28;20131;-68
2022/05/10 11:57:08;;;;;;;8.13;4.03;;;;;;;26.03;33.02;99697.69;5043667;28;20044;-67
2022/05/10 11:59:36;;;;;;;8.10;4.88;;;;;;;26.14;33.35;99694.59;5047143;28;20047;-68
2022/05/10 12:02:04;;;;;;;9.60;4.13;;;;;;;26.20;32.77;99701.16;5047118;28;20048;-68